Lincolns New Salem, Illinois
Current Conditions -  °F | °C
As of 10:52 PM on Saturday 25 Oct 2014 (Local Time) from KSPI Reporting Station
Clear Clear  
Wind Chill: 58°   Ceiling: Unl
Heat Index: 58°   Visibility: 10mi
Dew Point: 41°   Wind: 7mph
Humidity: 53%   Direction: 330°NNW
Pressure: 30.03"   Gusts: NA
Location:  39.995°N, 89.8499°W
Report Text: KSPI 260352Z 33006KT 10SM CLR 14/05 A3003 RMK AO2 SLP168 T01440050
Loading
Personal Weather Stations






























Interactive Weather Map
Tropical Storm Tracking
New forecast layout! Learn more

10-Day Weather Forecast

Advertisements
Track Severe Weather on mobile